createdAt,value
2018-12-22T00:01:25.734Z,7.33
2018-12-22T00:03:54.063Z,8.60
2018-12-22T00:06:22.405Z,7.13
2018-12-22T00:08:50.929Z,6.57
2018-12-22T00:11:19.415Z,8.40
2018-12-22T00:13:47.753Z,7.30
2018-12-22T00:16:16.095Z,7.33
2018-12-22T00:18:44.437Z,6.73
2018-12-22T00:21:12.792Z,6.30
2018-12-22T00:23:41.138Z,7.63
2018-12-22T00:26:09.480Z,6.10
2018-12-22T00:28:37.843Z,6.97
2018-12-22T00:31:06.181Z,7.50
2018-12-22T00:33:34.623Z,6.60
2018-12-22T00:36:02.956Z,6.53
2018-12-22T00:38:31.297Z,6.97
2018-12-22T00:40:59.956Z,6.17
2018-12-22T00:43:28.283Z,7.10
2018-12-22T00:45:56.632Z,6.97
2018-12-22T00:48:25.093Z,7.00
2018-12-22T00:50:53.404Z,7.27
2018-12-22T00:53:21.738Z,7.17
2018-12-22T00:55:50.228Z,7.80
2018-12-22T00:58:18.579Z,7.03
2018-12-22T01:00:46.986Z,6.17
2018-12-22T01:03:15.339Z,7.63
2018-12-22T01:05:43.684Z,8.20
2018-12-22T01:08:12.018Z,8.70
2018-12-22T01:10:40.348Z,9.80
2018-12-22T01:13:13.725Z,7.97
2018-12-22T01:15:42.534Z,8.77
2018-12-22T01:18:11.167Z,8.43
2018-12-22T01:20:39.652Z,8.60
2018-12-22T01:23:07.997Z,9.90
2018-12-22T01:25:36.332Z,9.80
2018-12-22T01:28:04.678Z,11.90
2018-12-22T01:30:33.063Z,10.33
2018-12-22T01:33:01.443Z,9.70
2018-12-22T01:35:29.786Z,11.33
2018-12-22T01:37:58.131Z,10.80
2018-12-22T01:40:26.531Z,9.67
2018-12-22T01:42:55.054Z,10.73
2018-12-22T01:45:23.388Z,10.13
2018-12-22T01:47:51.809Z,9.40
2018-12-22T01:50:20.154Z,11.47
2018-12-22T01:52:48.489Z,10.20
2018-12-22T01:55:16.839Z,11.03
2018-12-22T01:57:45.187Z,11.90
2018-12-22T02:00:13.701Z,11.27
2018-12-22T02:02:42.040Z,10.23
2018-12-22T02:05:10.375Z,10.47
2018-12-22T02:07:38.705Z,12.20
2018-12-22T02:10:07.056Z,9.80
2018-12-22T02:12:35.392Z,9.57
2018-12-22T02:15:04.550Z,10.30
2018-12-22T02:17:32.882Z,9.90
2018-12-22T02:20:01.242Z,9.70
2018-12-22T02:22:29.578Z,11.60
2018-12-22T02:24:57.906Z,10.70
2018-12-22T02:27:26.250Z,10.83
2018-12-22T02:29:54.596Z,9.87
2018-12-22T02:32:22.967Z,10.67
2018-12-22T02:34:51.433Z,10.63
2018-12-22T02:37:19.865Z,11.10
2018-12-22T02:39:48.203Z,11.30
2018-12-22T02:42:16.658Z,9.20
2018-12-22T02:44:44.995Z,9.37
2018-12-22T02:47:13.333Z,7.93
2018-12-22T02:49:41.682Z,9.20
2018-12-22T02:52:10.012Z,9.57
2018-12-22T02:54:38.449Z,10.03
2018-12-22T02:57:06.788Z,9.80
2018-12-22T02:59:35.239Z,8.63
2018-12-22T03:02:03.784Z,10.37
2018-12-22T03:04:32.117Z,9.87
2018-12-22T03:07:00.855Z,11.00
2018-12-22T03:09:29.191Z,9.83
2018-12-22T03:11:57.571Z,11.63
2018-12-22T03:14:25.907Z,9.73
2018-12-22T03:16:54.438Z,10.40
2018-12-22T03:19:22.767Z,10.80
2018-12-22T03:21:51.119Z,10.80
2018-12-22T03:24:19.465Z,9.70
2018-12-22T03:26:47.894Z,11.33
2018-12-22T03:29:16.362Z,14.50
2018-12-22T03:31:44.801Z,13.17
2018-12-22T03:34:13.150Z,13.70
2018-12-22T03:36:41.507Z,12.73
2018-12-22T03:39:10.040Z,13.97
2018-12-22T03:41:38.567Z,14.70
2018-12-22T03:44:07.026Z,12.47
2018-12-22T03:46:35.384Z,13.87
2018-12-22T03:49:03.748Z,12.47
2018-12-22T03:51:32.097Z,18.03
2018-12-22T03:54:00.447Z,15.53
2018-12-22T03:56:28.789Z,14.77
2018-12-22T03:58:57.132Z,14.50
2018-12-22T04:01:25.504Z,15.27
2018-12-22T04:03:53.960Z,14.77
2018-12-22T04:06:22.534Z,17.13
2018-12-22T04:08:50.985Z,16.07
2018-12-22T04:11:19.340Z,14.67
2018-12-22T04:13:48.238Z,14.37
2018-12-22T04:16:16.586Z,15.37
2018-12-22T04:18:44.967Z,16.47
2018-12-22T04:21:13.325Z,15.93
2018-12-22T04:23:41.733Z,12.77
2018-12-22T04:26:10.087Z,24.10
2018-12-22T04:28:38.433Z,46.00
2018-12-22T04:31:06.779Z,51.70
2018-12-22T04:33:35.174Z,53.23
2018-12-22T04:36:03.740Z,60.13
2018-12-22T04:38:32.098Z,47.97
2018-12-22T04:41:00.447Z,48.70
2018-12-22T04:43:28.789Z,38.73
2018-12-22T04:45:57.133Z,36.33
2018-12-22T04:48:25.470Z,30.23
2018-12-22T04:50:53.812Z,34.40
2018-12-22T04:53:22.153Z,36.70
2018-12-22T04:55:50.495Z,29.17
2018-12-22T04:58:18.851Z,28.30
2018-12-22T05:00:47.190Z,26.40
2018-12-22T05:03:15.544Z,28.80
2018-12-22T05:05:45.864Z,24.17
2018-12-22T05:08:14.205Z,23.10
2018-12-22T05:10:42.554Z,22.20
2018-12-22T05:13:10.914Z,21.27
2018-12-22T05:15:39.268Z,21.33
2018-12-22T05:18:07.614Z,22.40
2018-12-22T05:20:35.965Z,21.20
2018-12-22T05:23:04.316Z,21.83
2018-12-22T05:25:32.658Z,23.40
2018-12-22T05:28:01.104Z,18.13
2018-12-22T05:30:29.446Z,19.43
2018-12-22T05:32:57.791Z,16.73
2018-12-22T05:35:26.135Z,18.47
2018-12-22T05:37:54.517Z,17.70
2018-12-22T05:40:22.858Z,15.47
2018-12-22T05:42:51.250Z,17.07
2018-12-22T05:45:21.265Z,16.40
2018-12-22T05:47:50.509Z,15.30
2018-12-22T05:50:19.187Z,13.97
2018-12-22T05:52:47.858Z,13.97
2018-12-22T05:55:16.319Z,13.87
2018-12-22T05:57:44.680Z,13.57
2018-12-22T06:00:13.130Z,13.30
2018-12-22T06:02:41.528Z,14.93
2018-12-22T06:05:11.189Z,15.90
2018-12-22T06:07:39.746Z,13.43
2018-12-22T06:10:08.695Z,17.00
2018-12-22T06:12:37.361Z,14.30
2018-12-22T06:15:06.455Z,12.20
2018-12-22T06:17:34.853Z,12.83
2018-12-22T06:20:03.789Z,11.47
2018-12-22T06:22:32.185Z,11.90
2018-12-22T06:25:00.529Z,12.80
2018-12-22T06:27:28.990Z,14.47
2018-12-22T06:29:57.713Z,13.40
2018-12-22T06:32:26.055Z,11.10
2018-12-22T06:34:54.394Z,10.43
2018-12-22T06:37:22.742Z,10.97
2018-12-22T06:39:51.223Z,11.00
2018-12-22T06:42:19.571Z,11.00
2018-12-22T06:44:47.921Z,11.70
2018-12-22T06:47:16.269Z,10.70
2018-12-22T06:49:44.849Z,11.60
2018-12-22T06:52:13.212Z,11.10
2018-12-22T06:54:41.544Z,10.47
2018-12-22T06:57:09.880Z,10.30
2018-12-22T06:59:38.318Z,12.40
2018-12-22T07:02:06.669Z,9.57
2018-12-22T07:04:35.176Z,9.83
2018-12-22T07:07:03.709Z,10.43
2018-12-22T07:09:32.045Z,11.70
2018-12-22T07:12:00.399Z,9.30
2018-12-22T07:14:28.739Z,10.67
2018-12-22T07:16:57.073Z,8.83
2018-12-22T07:19:25.424Z,10.37
2018-12-22T07:21:53.861Z,10.30
2018-12-22T07:24:22.199Z,9.80
2018-12-22T07:26:50.570Z,10.27
2018-12-22T07:29:19.003Z,9.37
2018-12-22T07:31:47.335Z,9.67
2018-12-22T07:34:15.678Z,9.37
2018-12-22T07:36:44.132Z,9.33
2018-12-22T07:39:12.722Z,7.97
2018-12-22T07:41:41.192Z,10.13
2018-12-22T07:44:09.676Z,8.27
2018-12-22T07:46:38.034Z,7.83
2018-12-22T07:49:06.438Z,8.70
2018-12-22T07:51:34.789Z,9.83
2018-12-22T07:54:03.411Z,9.90
2018-12-22T07:56:31.752Z,9.07
2018-12-22T07:59:00.084Z,8.43
2018-12-22T08:01:28.432Z,13.13
2018-12-22T08:03:56.786Z,8.33
2018-12-22T08:06:25.286Z,8.50
2018-12-22T08:08:53.638Z,9.70
2018-12-22T08:11:22.248Z,10.10
2018-12-22T08:13:50.728Z,9.70
2018-12-22T08:16:19.069Z,9.07
2018-12-22T08:18:48.032Z,10.10
2018-12-22T08:21:16.788Z,10.13
2018-12-22T08:23:45.300Z,11.03
2018-12-22T08:26:13.653Z,10.77
2018-12-22T08:28:42.645Z,10.07
2018-12-22T08:31:11.013Z,10.30
2018-12-22T08:33:39.368Z,9.83
2018-12-22T08:36:07.814Z,11.93
2018-12-22T08:38:36.151Z,9.00
2018-12-22T08:41:04.576Z,9.47
2018-12-22T08:43:32.935Z,10.03
2018-12-22T08:46:01.403Z,10.77
2018-12-22T08:48:30.171Z,10.33
2018-12-22T08:50:58.638Z,10.47
2018-12-22T08:53:27.360Z,11.13
2018-12-22T08:55:55.715Z,11.93
2018-12-22T08:58:24.046Z,11.23
2018-12-22T09:00:52.597Z,10.60
2018-12-22T09:03:21.164Z,10.33
2018-12-22T09:05:49.506Z,10.53
2018-12-22T09:08:17.857Z,10.70
2018-12-22T09:10:46.811Z,11.20
2018-12-22T09:13:20.860Z,12.13
2018-12-22T09:15:45.543Z,10.73
2018-12-22T09:18:13.891Z,11.30
2018-12-22T09:20:42.325Z,10.80
2018-12-22T09:23:10.745Z,11.80
2018-12-22T09:25:39.263Z,11.43
2018-12-22T09:28:07.639Z,12.27
2018-12-22T09:30:35.989Z,11.83
2018-12-22T09:33:04.420Z,11.80
2018-12-22T09:35:32.780Z,12.83
2018-12-22T09:38:01.137Z,13.87
2018-12-22T09:40:29.486Z,11.97
2018-12-22T09:42:57.823Z,13.13
2018-12-22T09:45:26.164Z,12.23
2018-12-22T09:47:54.509Z,12.33
2018-12-22T09:50:22.978Z,12.40
2018-12-22T09:52:51.324Z,12.20
2018-12-22T09:55:19.663Z,12.63
2018-12-22T09:57:48.056Z,21.03
2018-12-22T10:00:16.913Z,12.00
2018-12-22T10:02:45.426Z,12.70
2018-12-22T10:05:13.781Z,13.17
2018-12-22T10:07:42.277Z,13.53
2018-12-22T10:10:12.377Z,13.03
2018-12-22T10:12:44.620Z,12.67
2018-12-22T10:15:16.901Z,13.23
2018-12-22T10:17:45.687Z,12.60
2018-12-22T10:20:14.149Z,15.10
2018-12-22T10:22:42.515Z,13.63
2018-12-22T10:25:11.265Z,13.47
2018-12-22T10:27:39.626Z,14.67
2018-12-22T10:30:10.211Z,12.47
2018-12-22T10:32:38.573Z,13.80
2018-12-22T10:35:14.926Z,12.80
2018-12-22T10:37:43.275Z,13.20
2018-12-22T10:40:11.635Z,14.07
2018-12-22T10:42:39.994Z,13.13
2018-12-22T10:45:08.894Z,13.10
2018-12-22T10:47:37.337Z,14.60
2018-12-22T10:50:06.633Z,14.90
2018-12-22T10:52:34.987Z,13.73
2018-12-22T10:55:04.098Z,13.77
2018-12-22T10:57:32.483Z,13.97
2018-12-22T11:00:00.853Z,12.93
2018-12-22T11:02:29.249Z,14.97
2018-12-22T11:04:57.788Z,14.53
2018-12-22T11:07:26.154Z,14.23
2018-12-22T11:09:54.496Z,13.93
2018-12-22T11:12:22.849Z,14.13
2018-12-22T11:14:51.199Z,14.60
2018-12-22T11:17:19.542Z,14.50
2018-12-22T11:19:47.987Z,14.37
2018-12-22T11:22:16.330Z,13.90
2018-12-22T11:24:44.671Z,12.87
2018-12-22T11:27:13.014Z,12.13
2018-12-22T11:29:41.691Z,12.03
2018-12-22T11:32:10.053Z,12.80
2018-12-22T11:34:38.488Z,15.03
2018-12-22T11:37:06.846Z,13.70
2018-12-22T11:39:35.265Z,13.60
2018-12-22T11:42:03.606Z,14.10
2018-12-22T11:44:31.971Z,14.40
2018-12-22T11:47:04.259Z,15.07
2018-12-22T11:49:32.731Z,14.70
2018-12-22T11:52:01.209Z,14.57
2018-12-22T11:54:29.573Z,13.90
2018-12-22T11:56:57.928Z,14.00
2018-12-22T11:59:26.340Z,14.70
2018-12-22T12:01:54.693Z,14.30
2018-12-22T12:04:23.037Z,19.83
2018-12-22T12:06:51.373Z,16.03
2018-12-22T12:09:19.861Z,15.53
2018-12-22T12:11:48.202Z,14.07
2018-12-22T12:14:16.739Z,15.77
2018-12-22T12:16:45.410Z,13.63
2018-12-22T12:19:14.986Z,15.27
2018-12-22T12:21:43.345Z,15.77
2018-12-22T12:24:11.713Z,15.10
2018-12-22T12:26:40.106Z,14.93
2018-12-22T12:29:08.476Z,17.50
2018-12-22T12:31:36.999Z,16.53
2018-12-22T12:34:05.369Z,18.50
2018-12-22T12:36:33.720Z,14.60
2018-12-22T12:39:02.081Z,15.43
2018-12-22T12:41:30.655Z,16.17
2018-12-22T12:43:59.015Z,16.20
2018-12-22T12:46:28.032Z,16.83
2018-12-22T12:48:56.393Z,16.07
2018-12-22T12:51:24.755Z,17.70
2018-12-22T12:53:53.176Z,15.63
2018-12-22T12:56:21.606Z,16.23
2018-12-22T12:58:49.950Z,15.80
2018-12-22T13:01:21.701Z,15.50
2018-12-22T13:03:53.686Z,18.40
2018-12-22T13:06:22.468Z,17.00
2018-12-22T13:08:50.971Z,16.27
2018-12-22T13:11:19.552Z,18.20
2018-12-22T13:13:47.973Z,18.13
2018-12-22T13:16:17.059Z,16.90
2018-12-22T13:18:45.431Z,20.17
2018-12-22T13:21:13.785Z,17.00
2018-12-22T13:23:42.144Z,19.97
2018-12-22T13:26:10.511Z,23.63
2018-12-22T13:28:38.862Z,21.83
2018-12-22T13:31:07.455Z,16.53
2018-12-22T13:33:36.244Z,22.37
2018-12-22T13:36:04.704Z,18.10
2018-12-22T13:38:33.324Z,20.30
2018-12-22T13:41:01.877Z,19.93
2018-12-22T13:43:30.236Z,15.50
2018-12-22T13:45:58.586Z,20.00
2018-12-22T13:48:27.027Z,16.63
2018-12-22T13:50:55.715Z,14.27
2018-12-22T13:53:24.356Z,14.37
2018-12-22T13:55:52.780Z,15.63
2018-12-22T13:58:21.154Z,16.00
2018-12-22T14:00:49.514Z,14.77
2018-12-22T14:03:18.070Z,14.07
2018-12-22T14:05:46.422Z,14.53
2018-12-22T14:08:14.788Z,14.23
2018-12-22T14:10:43.138Z,16.43
2018-12-22T14:13:11.506Z,13.83
2018-12-22T14:15:41.344Z,14.00
2018-12-22T14:18:23.895Z,15.30
2018-12-22T14:20:52.568Z,14.50
2018-12-22T14:23:23.364Z,14.13
2018-12-22T14:25:51.723Z,14.30
2018-12-22T14:28:20.276Z,14.57
2018-12-22T14:30:48.762Z,12.50
2018-12-22T14:33:17.101Z,14.07
2018-12-22T14:35:45.821Z,13.23
2018-12-22T14:38:14.164Z,13.30
2018-12-22T14:40:42.506Z,18.23
2018-12-22T14:43:10.915Z,14.23
2018-12-22T14:45:39.444Z,15.13
2018-12-22T14:48:07.793Z,14.40
2018-12-22T14:50:36.159Z,13.97
2018-12-22T14:53:04.521Z,14.53
2018-12-22T14:55:32.877Z,13.53
2018-12-22T14:58:02.242Z,15.57
2018-12-22T15:00:30.602Z,14.23
2018-12-22T15:02:58.960Z,14.73
2018-12-22T15:05:28.296Z,11.43
2018-12-22T15:07:56.672Z,14.70
2018-12-22T15:10:25.049Z,12.67
2018-12-22T15:12:53.409Z,12.97
2018-12-22T15:15:21.766Z,13.30
2018-12-22T15:17:50.199Z,14.83
2018-12-22T15:20:23.942Z,13.67
2018-12-22T15:22:52.298Z,13.50
2018-12-22T15:25:21.278Z,12.73
2018-12-22T15:27:49.799Z,13.27
2018-12-22T15:30:18.341Z,13.97
2018-12-22T15:32:54.481Z,13.00
2018-12-22T15:35:17.798Z,12.87
2018-12-22T15:37:46.358Z,12.70
2018-12-22T15:40:14.835Z,13.03
2018-12-22T15:42:43.458Z,11.93
2018-12-22T15:45:15.870Z,14.13
2018-12-22T15:47:45.657Z,12.00
2018-12-22T15:50:21.472Z,11.67
2018-12-22T15:52:49.978Z,14.73
2018-12-22T15:55:18.439Z,12.33
2018-12-22T15:57:46.895Z,90.20
2018-12-22T16:00:15.545Z,164.03
2018-12-22T16:02:52.829Z,74.33
2018-12-22T16:05:14.359Z,86.30
2018-12-22T16:07:42.709Z,65.87
2018-12-22T16:10:14.009Z,56.60
2018-12-22T16:12:42.621Z,49.30
2018-12-22T16:15:16.777Z,42.13
2018-12-22T16:17:45.131Z,46.60
2018-12-22T16:20:13.591Z,40.40
2018-12-22T16:22:53.340Z,41.87
2018-12-22T16:25:21.684Z,39.23
2018-12-22T16:27:51.687Z,33.60
2018-12-22T16:30:26.636Z,30.50
2018-12-22T16:33:01.581Z,30.27
2018-12-22T16:35:25.649Z,25.57
2018-12-22T16:37:54.123Z,25.90
2018-12-22T16:40:22.487Z,26.70
2018-12-22T16:42:50.864Z,25.00
2018-12-22T16:45:19.242Z,21.10
2018-12-22T16:47:48.571Z,21.97
2018-12-22T16:50:17.551Z,21.53
2018-12-22T16:52:45.913Z,19.70
2018-12-22T16:55:16.386Z,18.60
2018-12-22T16:58:00.909Z,17.50
2018-12-22T17:00:33.296Z,19.13
2018-12-22T17:03:10.414Z,17.90
2018-12-22T17:05:32.086Z,18.57
2018-12-22T17:08:00.449Z,18.00
2018-12-22T17:10:30.212Z,18.53
2018-12-22T17:12:58.755Z,15.97
2018-12-22T17:15:27.239Z,15.90
2018-12-22T17:17:55.612Z,15.80
2018-12-22T17:20:24.607Z,14.50
2018-12-22T17:23:18.708Z,17.57
2018-12-22T17:25:51.028Z,14.87
2018-12-22T17:28:27.920Z,17.00
2018-12-22T17:30:49.801Z,17.00
2018-12-22T17:33:19.040Z,15.67
2018-12-22T17:35:47.770Z,16.13
2018-12-22T17:38:16.132Z,16.00
2018-12-22T17:40:44.504Z,14.40
2018-12-22T17:43:13.035Z,15.20
2018-12-22T17:45:41.569Z,18.70
2018-12-22T17:48:09.936Z,15.60
2018-12-22T17:50:38.290Z,15.53
2018-12-22T17:53:06.650Z,14.40
2018-12-22T17:55:35.023Z,16.53
2018-12-22T17:58:03.842Z,15.63
2018-12-22T18:00:32.252Z,14.67
2018-12-22T18:03:01.753Z,14.90
2018-12-22T18:05:30.435Z,14.67
2018-12-22T18:07:59.941Z,16.03
2018-12-22T18:10:28.327Z,15.70
2018-12-22T18:12:57.317Z,20.27
2018-12-22T18:15:26.213Z,17.03
2018-12-22T18:17:54.697Z,17.33
2018-12-22T18:20:23.546Z,17.80
2018-12-22T18:22:52.682Z,15.73
2018-12-22T18:25:21.872Z,17.27
2018-12-22T18:27:52.096Z,16.77
2018-12-22T18:30:20.468Z,17.80
2018-12-22T18:32:49.056Z,15.97
2018-12-22T18:35:17.442Z,16.47
2018-12-22T18:37:45.929Z,19.17
2018-12-22T18:40:17.777Z,19.30
2018-12-22T18:42:47.019Z,18.20
2018-12-22T18:45:15.386Z,19.13
2018-12-22T18:47:44.255Z,17.60
2018-12-22T18:50:16.283Z,15.87
2018-12-22T18:52:44.819Z,18.23
2018-12-22T18:55:13.283Z,17.00
2018-12-22T18:57:42.024Z,19.67
2018-12-22T19:00:15.398Z,17.03
2018-12-22T19:02:43.840Z,17.90
2018-12-22T19:05:12.957Z,17.80
2018-12-22T19:07:41.437Z,17.33
2018-12-22T19:10:20.991Z,19.07
2018-12-22T19:12:49.437Z,16.57
2018-12-22T19:15:17.784Z,18.80
2018-12-22T19:17:46.119Z,16.57
2018-12-22T19:20:18.069Z,16.97
2018-12-22T19:22:46.468Z,16.63
2018-12-22T19:25:14.909Z,16.93
2018-12-22T19:27:43.291Z,19.27
2018-12-22T19:30:11.645Z,18.93
2018-12-22T19:32:40.111Z,16.63
2018-12-22T19:35:08.520Z,18.57
2018-12-22T19:37:37.108Z,17.30
2018-12-22T19:40:05.684Z,21.27
2018-12-22T19:42:34.137Z,18.10
2018-12-22T19:45:02.895Z,19.33
2018-12-22T19:47:31.273Z,19.63
2018-12-22T19:50:00.154Z,18.13
2018-12-22T19:52:28.583Z,19.90
2018-12-22T19:54:57.387Z,16.60
2018-12-22T19:57:25.739Z,18.57
2018-12-22T19:59:54.106Z,19.50
2018-12-22T20:02:22.462Z,19.33
2018-12-22T20:04:51.050Z,18.13
2018-12-22T20:07:19.658Z,17.23
2018-12-22T20:09:48.007Z,19.40
2018-12-22T20:12:16.909Z,19.70
2018-12-22T20:14:45.263Z,19.70
2018-12-22T20:17:13.928Z,19.30
2018-12-22T20:19:42.290Z,18.70
2018-12-22T20:22:10.673Z,19.63
2018-12-22T20:24:39.024Z,17.87
2018-12-22T20:27:07.760Z,21.30
2018-12-22T20:29:36.325Z,19.73
2018-12-22T20:32:04.912Z,19.67
2018-12-22T20:34:33.598Z,19.20
2018-12-22T20:37:01.950Z,21.07
2018-12-22T20:39:30.310Z,31.13
2018-12-22T20:41:58.705Z,21.50
2018-12-22T20:44:27.208Z,22.00
2018-12-22T20:46:55.594Z,20.63
2018-12-22T20:49:24.084Z,21.00
2018-12-22T20:51:52.460Z,22.40
2018-12-22T20:54:21.039Z,24.70
2018-12-22T20:56:49.396Z,22.60
2018-12-22T20:59:17.898Z,27.00
2018-12-22T21:01:46.606Z,26.57
2018-12-22T21:04:19.756Z,27.17
2018-12-22T21:06:45.504Z,25.20
2018-12-22T21:09:14.547Z,28.60
2018-12-22T21:11:42.914Z,23.07
2018-12-22T21:14:11.290Z,30.27
2018-12-22T21:16:40.025Z,28.60
2018-12-22T21:19:08.396Z,24.87
2018-12-22T21:21:36.770Z,23.13
2018-12-22T21:24:05.189Z,25.60
2018-12-22T21:26:33.687Z,21.60
2018-12-22T21:29:02.086Z,23.63
2018-12-22T21:31:30.699Z,25.00
2018-12-22T21:33:59.055Z,24.23
2018-12-22T21:36:27.565Z,21.97
2018-12-22T21:38:56.041Z,26.70
2018-12-22T21:41:24.403Z,25.00
2018-12-22T21:43:52.897Z,22.60
2018-12-22T21:46:21.510Z,24.10
2018-12-22T21:48:49.984Z,24.93
2018-12-22T21:51:18.918Z,25.83
2018-12-22T21:53:47.293Z,24.47
2018-12-22T21:56:16.146Z,22.37
2018-12-22T21:58:44.829Z,20.93
2018-12-22T22:01:13.409Z,22.07
2018-12-22T22:03:41.872Z,23.37
2018-12-22T22:06:10.242Z,24.67
2018-12-22T22:08:38.625Z,23.27
2018-12-22T22:11:07.017Z,20.47
2018-12-22T22:13:35.368Z,20.23
2018-12-22T22:16:03.716Z,24.13
2018-12-22T22:18:32.069Z,18.00
2018-12-22T22:21:00.623Z,18.50
2018-12-22T22:23:29.012Z,23.17
2018-12-22T22:25:57.491Z,23.77
2018-12-22T22:28:25.855Z,21.23
2018-12-22T22:30:55.269Z,26.30
2018-12-22T22:33:23.626Z,17.50
2018-12-22T22:35:52.025Z,15.43
2018-12-22T22:38:20.503Z,17.57
2018-12-22T22:40:48.885Z,19.47
2018-12-22T22:43:17.570Z,16.70
2018-12-22T22:45:46.054Z,16.53
2018-12-22T22:48:14.668Z,19.60
2018-12-22T22:50:43.034Z,16.97
2018-12-22T22:53:11.400Z,17.33
2018-12-22T22:55:39.928Z,17.23
2018-12-22T22:58:08.353Z,15.67
2018-12-22T23:00:36.722Z,13.87
2018-12-22T23:03:05.084Z,15.83
2018-12-22T23:05:34.302Z,16.63
2018-12-22T23:08:02.650Z,11.47
2018-12-22T23:10:30.996Z,14.03
2018-12-22T23:13:00.170Z,14.30
2018-12-22T23:15:28.530Z,13.20
2018-12-22T23:17:56.896Z,11.13
2018-12-22T23:20:25.252Z,11.03
2018-12-22T23:22:53.611Z,22.87
2018-12-22T23:25:22.148Z,34.07
2018-12-22T23:27:50.516Z,55.33
2018-12-22T23:30:19.008Z,60.03
2018-12-22T23:32:47.542Z,50.23
2018-12-22T23:35:15.888Z,48.47
2018-12-22T23:37:44.448Z,42.40
2018-12-22T23:40:13.058Z,43.70
2018-12-22T23:42:41.597Z,30.53
2018-12-22T23:45:09.994Z,36.43
2018-12-22T23:47:38.360Z,30.00
2018-12-22T23:50:07.051Z,25.43
2018-12-22T23:52:35.498Z,25.03
2018-12-22T23:55:04.830Z,18.50
2018-12-22T23:57:33.186Z,22.67
